Time;durP1;ratioP1;P1;durP2;ratioP2;P2;SDS_P1;SDS_P2;PMS_P1;PMS_P2;Temp;Humidity;BMP_temperature;BMP_pressure;BME280_temperature;BME280_humidity;BME280_pressure;Samples;Min_cycle;Max_cycle;Signal;HPM_P1;HPM_P2
2022/04/22 00:01:13;;;;;;;20.58;18.42;;;;;;;-144.47;100.00;61586.06;6123323;23;20469;-75
2022/04/22 00:03:39;;;;;;;20.25;18.08;;;;;;;-144.47;100.00;61586.06;6123760;23;20018;-74
2022/04/22 00:06:05;;;;;;;30.85;20.17;;;;;;;-144.47;100.00;61586.06;6131742;23;20025;-74
2022/04/22 00:08:31;;;;;;;22.15;19.48;;;;;;;-144.47;100.00;61586.06;6129520;23;20002;-74
2022/04/22 00:13:42;;;;;;;20.98;18.25;;;;;;;-144.47;100.00;61586.06;6122123;23;20495;-74
2022/04/22 00:16:09;;;;;;;21.63;18.63;;;;;;;-144.47;100.00;61586.06;6122517;23;20085;-74
2022/04/22 00:18:35;;;;;;;22.15;18.70;;;;;;;-144.47;100.00;61586.06;6122076;23;20014;-74
2022/04/22 00:21:01;;;;;;;24.55;18.63;;;;;;;-144.47;100.00;61586.06;6122522;23;20013;-76
2022/04/22 00:23:27;;;;;;;23.35;18.67;;;;;;;-144.47;100.00;61586.06;6121656;23;20364;-76
2022/04/22 00:25:54;;;;;;;23.30;18.55;;;;;;;-144.47;100.00;61586.06;6121822;23;20024;-74
2022/04/22 00:28:20;;;;;;;24.52;19.08;;;;;;;-144.47;100.00;61586.06;6122074;23;20010;-76
2022/04/22 00:30:46;;;;;;;22.00;18.20;;;;;;;-144.47;100.00;61586.06;6122831;23;20017;-74
2022/04/22 00:33:11;;;;;;;22.48;18.65;;;;;;;-144.47;100.00;61586.06;6122570;23;20021;-75
2022/04/22 00:35:37;;;;;;;22.30;17.55;;;;;;;-144.47;100.00;61586.06;6121553;23;20014;-76
2022/04/22 00:38:02;;;;;;;22.63;18.60;;;;;;;-144.47;100.00;61586.06;6121959;23;20016;-77
2022/04/22 00:40:28;;;;;;;23.88;21.08;;;;;;;-144.47;100.00;61586.06;6121277;23;20018;-73
2022/04/22 00:42:53;;;;;;;31.15;23.67;;;;;;;-144.47;100.00;61586.06;6122308;23;20264;-73
2022/04/22 00:45:20;;;;;;;32.85;25.33;;;;;;;-144.47;100.00;61586.06;6122318;23;20014;-74
2022/04/22 00:47:46;;;;;;;29.05;24.90;;;;;;;-144.47;100.00;61586.06;6122508;23;20085;-75
2022/04/22 00:50:12;;;;;;;31.52;25.40;;;;;;;-144.47;100.00;61586.06;6122843;23;20424;-75
2022/04/22 00:52:38;;;;;;;33.33;25.23;;;;;;;-144.47;100.00;61586.06;6122367;23;20010;-74
2022/04/22 00:55:04;;;;;;;28.45;24.80;;;;;;;-144.47;100.00;61586.06;6121501;23;20037;-76
2022/04/22 00:57:32;;;;;;;30.67;25.88;;;;;;;-144.47;100.00;61586.06;6119994;23;20041;-75
2022/04/22 00:59:57;;;;;;;30.98;24.95;;;;;;;-144.47;100.00;61586.06;6119550;23;20037;-75
2022/04/22 01:02:23;;;;;;;29.98;25.15;;;;;;;-144.47;100.00;61586.06;6119390;23;20009;-75
2022/04/22 01:10:16;;;;;;;31.77;26.10;;;;;;;-144.47;100.00;61586.06;6121616;23;20009;-75
2022/04/22 01:12:42;;;;;;;30.75;25.67;;;;;;;-144.47;100.00;61586.06;6121877;23;20020;-75
2022/04/22 01:15:08;;;;;;;32.72;26.27;;;;;;;-144.47;100.00;61586.06;6122385;23;20094;-75
2022/04/22 01:17:34;;;;;;;30.67;24.60;;;;;;;-144.47;100.00;61586.06;6122335;23;20099;-74
2022/04/22 01:19:59;;;;;;;31.50;26.08;;;;;;;-144.47;100.00;61586.06;6122794;23;20045;-75
2022/04/22 01:22:27;;;;;;;29.13;25.73;;;;;;;-144.47;100.00;61586.06;6122510;23;20014;-75
2022/04/22 01:24:58;;;;;;;31.58;25.92;;;;;;;-144.47;100.00;61586.06;6121852;23;20196;-74
2022/04/22 01:27:27;;;;;;;31.13;25.00;;;;;;;-144.47;100.00;61586.06;6121558;23;20089;-75
2022/04/22 01:29:53;;;;;;;30.98;25.58;;;;;;;-144.47;100.00;61586.06;6122458;23;20093;-74
2022/04/22 01:32:19;;;;;;;31.00;25.10;;;;;;;-144.47;100.00;61586.06;6122305;23;20034;-75
2022/04/22 01:34:45;;;;;;;29.30;25.77;;;;;;;-144.47;100.00;61586.06;6122299;23;20383;-73
2022/04/22 01:37:11;;;;;;;29.33;25.15;;;;;;;-144.47;100.00;61586.06;6122054;23;20098;-73
2022/04/22 01:39:36;;;;;;;32.42;26.83;;;;;;;-144.47;100.00;61586.06;6121185;23;20010;-73
2022/04/22 01:42:02;;;;;;;32.75;26.23;;;;;;;-144.47;100.00;61586.06;6120044;23;20065;-76
2022/04/22 01:44:28;;;;;;;28.00;24.80;;;;;;;-144.47;100.00;61586.06;6121279;23;20055;-73
2022/04/22 01:46:53;;;;;;;32.72;27.05;;;;;;;-144.47;100.00;61586.06;6121897;23;20097;-76
2022/04/22 01:49:19;;;;;;;30.85;25.88;;;;;;;-144.47;100.00;61586.06;6121768;23;20009;-75
2022/04/22 01:51:44;;;;;;;31.90;26.88;;;;;;;-144.47;100.00;61586.06;6121560;23;20463;-75
2022/04/22 01:54:11;;;;;;;35.75;27.40;;;;;;;-144.47;100.00;61586.06;6121783;23;20006;-75
2022/04/22 01:56:36;;;;;;;30.38;26.08;;;;;;;-144.47;100.00;61586.06;6120489;23;20018;-75
2022/04/22 01:59:02;;;;;;;35.35;27.30;;;;;;;-144.47;100.00;61586.06;6121786;23;20438;-75
2022/04/22 02:01:29;;;;;;;34.22;26.95;;;;;;;-144.47;100.00;61586.06;6144226;23;20089;-75
2022/04/22 02:03:55;;;;;;;34.85;28.15;;;;;;;-144.47;100.00;61586.06;6121896;23;20034;-75
2022/04/22 02:06:20;;;;;;;34.75;28.20;;;;;;;-144.47;100.00;61586.06;6122614;23;20727;-75
2022/04/22 02:08:45;;;;;;;35.25;28.30;;;;;;;-144.47;100.00;61586.06;6123910;23;20020;-75
2022/04/22 02:11:11;;;;;;;32.85;27.60;;;;;;;-144.47;100.00;61586.06;6123371;23;20065;-75
2022/04/22 02:13:36;;;;;;;35.28;27.55;;;;;;;-144.47;100.00;61586.06;6123650;23;20017;-75
2022/04/22 02:16:04;;;;;;;33.28;27.65;;;;;;;-144.47;100.00;61586.06;6124605;23;20061;-76
2022/04/22 02:18:30;;;;;;;33.65;28.08;;;;;;;-144.47;100.00;61586.06;6123513;23;20072;-75
2022/04/22 02:20:56;;;;;;;34.42;28.17;;;;;;;-144.47;100.00;61586.06;6123790;23;20005;-75
2022/04/22 02:23:21;;;;;;;34.05;28.40;;;;;;;-144.47;100.00;61586.06;6123157;23;20012;-75
2022/04/22 02:25:48;;;;;;;32.67;27.90;;;;;;;-144.47;100.00;61586.06;6123092;23;20089;-75
2022/04/22 02:28:32;;;;;;;35.83;28.02;;;;;;;-144.47;100.00;61586.06;6123041;23;20016;-75
2022/04/22 02:31:08;;;;;;;31.92;26.45;;;;;;;-144.47;100.00;61586.06;6123222;23;20076;-75
2022/04/22 02:33:35;;;;;;;37.67;29.88;;;;;;;-144.47;100.00;61586.06;6122682;23;20029;-75
2022/04/22 02:36:02;;;;;;;34.67;28.25;;;;;;;-144.47;100.00;61586.06;6123090;23;20388;-75
2022/04/22 02:38:29;;;;;;;38.13;28.02;;;;;;;-144.47;100.00;61586.06;6121174;23;20093;-76
2022/04/22 02:46:24;;;;;;;31.33;26.05;;;;;;;-144.47;100.00;61586.06;6122488;23;20292;-75
2022/04/22 02:48:51;;;;;;;31.55;26.75;;;;;;;-144.47;100.00;61586.06;6123409;23;20006;-75
2022/04/22 02:51:17;;;;;;;32.05;27.27;;;;;;;-144.47;100.00;61586.06;6123094;23;20020;-74
2022/04/22 02:53:43;;;;;;;31.35;25.75;;;;;;;-144.47;100.00;61586.06;6122793;23;20010;-74
2022/04/22 02:56:10;;;;;;;33.78;26.60;;;;;;;-144.47;100.00;61586.06;6122778;23;20367;-74
2022/04/22 02:58:36;;;;;;;29.98;26.35;;;;;;;-144.47;100.00;61586.06;6122564;23;20010;-74
2022/04/22 03:01:03;;;;;;;33.88;26.77;;;;;;;-144.47;100.00;61586.06;6122600;23;20026;-74
2022/04/22 03:03:29;;;;;;;29.70;25.60;;;;;;;-144.47;100.00;61586.06;6122478;23;20236;-74
2022/04/22 03:05:54;;;;;;;31.40;26.58;;;;;;;-144.47;100.00;61586.06;6123092;23;20014;-74
2022/04/22 03:08:20;;;;;;;32.05;26.05;;;;;;;-144.47;100.00;61586.06;6145628;23;20086;-75
2022/04/22 03:10:48;;;;;;;29.85;26.08;;;;;;;-144.47;100.00;61586.06;6122607;23;20408;-76
2022/04/22 03:13:15;;;;;;;30.52;26.27;;;;;;;-144.47;100.00;61586.06;6123181;23;20010;-73
2022/04/22 03:15:41;;;;;;;32.72;26.50;;;;;;;-144.47;100.00;61586.06;6122048;23;20060;-76
2022/04/22 03:18:07;;;;;;;29.70;25.67;;;;;;;-144.47;100.00;61586.06;6122459;23;20021;-73
2022/04/22 03:20:33;;;;;;;32.17;26.67;;;;;;;-144.47;100.00;61586.06;6122405;23;20010;-76
2022/04/22 03:22:58;;;;;;;31.73;26.70;;;;;;;-144.47;100.00;61586.06;6122993;23;20038;-73
2022/04/22 03:25:24;;;;;;;31.45;26.10;;;;;;;-144.47;100.00;61586.06;6122389;23;20101;-73
2022/04/22 03:27:51;;;;;;;29.27;25.52;;;;;;;-144.47;100.00;61586.06;6123047;23;20002;-73
2022/04/22 03:30:17;;;;;;;30.38;25.50;;;;;;;-144.47;100.00;61586.06;6122958;23;20020;-74
2022/04/22 03:32:43;;;;;;;32.58;26.40;;;;;;;-144.47;100.00;61586.06;6122452;23;20038;-74
2022/04/22 03:35:09;;;;;;;30.00;25.77;;;;;;;-144.47;100.00;61586.06;6123010;23;20034;-75
2022/04/22 03:37:35;;;;;;;33.13;27.35;;;;;;;-144.47;100.00;61586.06;6122620;23;20065;-75
2022/04/22 03:40:02;;;;;;;34.10;25.58;;;;;;;-144.47;100.00;61586.06;6125719;23;20305;-74
2022/04/22 03:42:29;;;;;;;30.73;26.13;;;;;;;-144.47;100.00;61586.06;6133693;23;20128;-74
2022/04/22 03:44:58;;;;;;;33.08;26.10;;;;;;;-144.47;100.00;61586.06;6129380;23;20453;-74
2022/04/22 03:47:23;;;;;;;30.83;26.85;;;;;;;-144.47;100.00;61586.06;6121841;23;20465;-74
2022/04/22 03:49:49;;;;;;;31.92;26.20;;;;;;;-144.47;100.00;61586.06;6122625;23;20005;-74
2022/04/22 03:52:15;;;;;;;36.75;27.52;;;;;;;-144.47;100.00;61586.06;6122761;23;20018;-74
2022/04/22 03:54:41;;;;;;;32.10;25.55;;;;;;;-144.47;100.00;61586.06;6122385;23;20028;-74
2022/04/22 03:59:50;;;;;;;32.53;25.52;;;;;;;-144.47;100.00;61586.06;6122711;23;20444;-74
2022/04/22 04:02:16;;;;;;;33.15;26.63;;;;;;;-144.47;100.00;61586.06;6122002;23;20038;-74
2022/04/22 04:04:41;;;;;;;33.05;25.55;;;;;;;-144.47;100.00;61586.06;6121862;23;20037;-75
2022/04/22 04:07:07;;;;;;;29.92;25.80;;;;;;;-144.47;100.00;61586.06;6122514;23;20288;-74
2022/04/22 04:18:15;;;;;;;30.25;25.08;;;;;;;-144.47;100.00;61586.06;6088612;23;20458;-74
2022/04/22 04:23:25;;;;;;;30.73;26.17;;;;;;;-144.47;100.00;61586.06;6119592;23;20017;-73
2022/04/22 04:25:50;;;;;;;32.33;26.92;;;;;;;-144.47;100.00;61586.06;6122879;23;20036;-77
2022/04/22 04:28:17;;;;;;;33.75;27.23;;;;;;;-144.47;100.00;61586.06;6122116;23;20009;-73
2022/04/22 04:30:44;;;;;;;32.97;27.40;;;;;;;-144.47;100.00;61586.06;6122121;23;20014;-75
2022/04/22 04:33:10;;;;;;;35.05;28.40;;;;;;;-144.47;100.00;61586.06;6122433;23;20036;-76
2022/04/22 04:35:38;;;;;;;33.50;27.35;;;;;;;-144.47;100.00;61586.06;6121942;23;20444;-75
2022/04/22 04:38:05;;;;;;;32.83;26.92;;;;;;;-144.47;100.00;61586.06;6122196;23;20021;-75
2022/04/22 04:40:32;;;;;;;34.97;26.77;;;;;;;-144.47;100.00;61586.06;6122287;23;20021;-76
2022/04/22 04:42:58;;;;;;;33.10;27.00;;;;;;;-144.47;100.00;61586.06;6123420;23;20052;-76
2022/04/22 04:45:23;;;;;;;32.72;24.83;;;;;;;-144.47;100.00;61586.06;6123698;23;20017;-75
2022/04/22 04:47:49;;;;;;;29.55;24.60;;;;;;;-144.47;100.00;61586.06;6122381;23;20010;-75
2022/04/22 04:50:14;;;;;;;28.42;25.15;;;;;;;-144.47;100.00;61586.06;6122113;23;20029;-73
2022/04/22 04:52:41;;;;;;;32.40;24.92;;;;;;;-144.47;100.00;61586.06;6121279;23;20375;-74
2022/04/22 04:55:09;;;;;;;29.70;25.85;;;;;;;-144.47;100.00;61586.06;6122484;23;20021;-75
2022/04/22 04:57:34;;;;;;;31.27;26.50;;;;;;;-144.47;100.00;61586.06;6121982;23;20021;-74
2022/04/22 05:00:01;;;;;;;31.58;25.38;;;;;;;-144.47;100.00;61586.06;6122583;23;20006;-74
2022/04/22 05:02:27;;;;;;;34.33;26.45;;;;;;;-144.47;100.00;61586.06;6121492;23;20053;-74
2022/04/22 05:04:52;;;;;;;32.15;25.08;;;;;;;-144.47;100.00;61586.06;6121610;23;20204;-75
2022/04/22 05:07:18;;;;;;;30.02;26.15;;;;;;;-144.47;100.00;61586.06;6121671;23;20096;-74
2022/04/22 05:09:44;;;;;;;31.05;26.60;;;;;;;-144.47;100.00;61586.06;6120062;23;20436;-79
2022/04/22 05:12:10;;;;;;;32.05;26.33;;;;;;;-144.47;100.00;61586.06;6119686;23;20081;-80
2022/04/22 05:14:36;;;;;;;32.25;25.80;;;;;;;-144.47;100.00;61586.06;6119186;23;20038;-80
2022/04/22 05:17:02;;;;;;;34.95;25.77;;;;;;;-144.47;100.00;61586.06;6119584;23;20022;-81
2022/04/22 05:19:27;;;;;;;35.08;26.65;;;;;;;-144.47;100.00;61586.06;6119778;23;20335;-81
2022/04/22 05:21:55;;;;;;;33.15;26.05;;;;;;;-144.47;100.00;61586.06;6120459;23;20014;-82
2022/04/22 05:24:21;;;;;;;32.97;28.10;;;;;;;-144.47;100.00;61586.06;6143881;23;20093;-81
2022/04/22 05:26:47;;;;;;;34.78;27.30;;;;;;;-144.47;100.00;61586.06;6119312;23;20088;-82
2022/04/22 05:34:41;;;;;;;33.25;27.00;;;;;;;-144.47;100.00;61586.06;6122316;23;20018;-82
2022/04/22 05:37:07;;;;;;;32.72;27.95;;;;;;;-144.47;100.00;61586.06;6119145;23;20073;-81
2022/04/22 05:39:33;;;;;;;33.60;26.90;;;;;;;-144.47;100.00;61586.06;6119279;23;20335;-81
2022/04/22 05:42:00;;;;;;;33.63;28.38;;;;;;;-144.47;100.00;61586.06;6122837;23;20014;-82
2022/04/22 05:44:26;;;;;;;62.88;50.40;;;;;;;-144.47;100.00;61586.06;6124996;23;20010;-85
2022/04/22 05:46:51;;;;;;;56.78;46.40;;;;;;;-144.47;100.00;61586.06;6129393;23;20489;-84
2022/04/22 05:49:18;;;;;;;38.88;30.13;;;;;;;-144.47;100.00;61586.06;6131495;23;20014;-84
2022/04/22 05:51:43;;;;;;;36.30;29.48;;;;;;;-144.47;100.00;61586.06;6129106;23;20020;-85
2022/04/22 05:54:09;;;;;;;36.67;28.75;;;;;;;-144.47;100.00;61586.06;6123464;23;20096;-84
2022/04/22 05:56:34;;;;;;;34.45;27.75;;;;;;;-144.47;100.00;61586.06;6124988;23;20108;-80
2022/04/22 05:58:59;;;;;;;36.63;29.70;;;;;;;-144.47;100.00;61586.06;6124789;23;20039;-87
2022/04/22 06:01:25;;;;;;;36.17;28.83;;;;;;;-144.47;100.00;61586.06;6127423;23;20010;-85
2022/04/22 06:03:50;;;;;;;36.50;27.98;;;;;;;-144.47;100.00;61586.06;6126771;23;20047;-87
2022/04/22 06:06:16;;;;;;;38.25;28.88;;;;;;;-144.47;100.00;61586.06;6148223;23;20028;-86
2022/04/22 06:11:51;;;;;;;34.75;27.45;;;;;;;-144.47;100.00;61586.06;6128751;23;20096;-86
2022/04/22 06:14:19;;;;;;;33.20;26.95;;;;;;;-144.47;100.00;61586.06;6131472;23;20081;-86
2022/04/22 06:17:10;;;;;;;36.53;29.13;;;;;;;-144.47;100.00;61586.06;6128782;23;20109;-86
2022/04/22 06:19:35;;;;;;;34.17;27.27;;;;;;;-144.47;100.00;61586.06;6141290;23;20239;-86
2022/04/22 06:22:01;;;;;;;36.13;27.20;;;;;;;-144.47;100.00;61586.06;6151264;23;20009;-87
2022/04/22 06:24:26;;;;;;;38.78;28.98;;;;;;;-144.47;100.00;61586.06;6148162;23;20224;-87
2022/04/22 06:26:52;;;;;;;33.85;28.02;;;;;;;-144.47;100.00;61586.06;6131277;23;20088;-87
2022/04/22 06:29:18;;;;;;;32.25;26.85;;;;;;;-144.47;100.00;61586.06;6128090;23;20010;-87
2022/04/22 06:31:45;;;;;;;31.00;26.00;;;;;;;-144.47;100.00;61586.06;6126525;23;20351;-87
2022/04/22 06:34:11;;;;;;;32.58;26.40;;;;;;;-144.47;100.00;61586.06;6125857;23;20005;-87
2022/04/22 06:36:37;;;;;;;30.88;26.33;;;;;;;-144.47;100.00;61586.06;6124367;23;20041;-86
2022/04/22 06:39:03;;;;;;;30.27;26.23;;;;;;;-144.47;100.00;61586.06;6123667;23;20014;-88
2022/04/22 06:46:54;;;;;;;;;;;;;;;-144.47;100.00;61586.06;6125388;23;20018;-86
2022/04/22 06:49:19;;;;;;;30.55;24.73;;;;;;;-144.47;100.00;61586.06;6125039;23;20382;-85
2022/04/22 06:51:45;;;;;;;30.63;23.83;;;;;;;-144.47;100.00;61586.06;6132295;23;20054;-86
2022/04/22 06:54:11;;;;;;;26.63;22.58;;;;;;;-144.47;100.00;61586.06;6128293;23;20014;-87
2022/04/22 06:56:39;;;;;;;29.27;22.95;;;;;;;-144.47;100.00;61586.06;6126977;23;20010;-87
2022/04/22 06:59:05;;;;;;;29.75;23.80;;;;;;;-144.47;100.00;61586.06;6124095;23;20042;-87
2022/04/22 07:01:31;;;;;;;29.23;24.25;;;;;;;-144.47;100.00;61586.06;6156611;23;20033;-86
2022/04/22 07:03:57;;;;;;;25.58;21.90;;;;;;;-144.47;100.00;61586.06;6129370;23;20083;-86
2022/04/22 07:06:23;;;;;;;27.65;22.73;;;;;;;-144.47;100.00;61586.06;6128556;23;20095;-86
2022/04/22 07:08:49;;;;;;;26.13;21.75;;;;;;;-144.47;100.00;61586.06;6129163;23;20018;-86
2022/04/22 07:11:21;;;;;;;25.00;21.27;;;;;;;-144.47;100.00;61586.06;6130196;23;20013;-86
2022/04/22 07:13:47;;;;;;;25.85;21.38;;;;;;;-144.47;100.00;61586.06;6136627;23;20013;-87
2022/04/22 07:16:16;;;;;;;23.20;19.55;;;;;;;-144.47;100.00;61586.06;6150320;23;20062;-87
2022/04/22 07:18:42;;;;;;;26.13;20.92;;;;;;;-144.47;100.00;61586.06;6145694;23;20017;-87
2022/04/22 07:21:08;;;;;;;22.45;18.50;;;;;;;-144.47;100.00;61586.06;6128041;23;20090;-87
2022/04/22 07:23:34;;;;;;;22.20;19.90;;;;;;;-144.47;100.00;61586.06;6133525;23;20347;-87
2022/04/22 07:26:00;;;;;;;24.63;20.10;;;;;;;-144.47;100.00;61586.06;6126796;23;20018;-87
2022/04/22 07:28:28;;;;;;;20.27;18.13;;;;;;;-144.47;100.00;61586.06;6123194;23;20021;-86
2022/04/22 07:30:56;;;;;;;19.00;16.10;;;;;;;-144.47;100.00;61586.06;6149759;23;20072;-87
2022/04/22 07:33:21;;;;;;;21.17;16.63;;;;;;;-144.47;100.00;61586.06;6123539;23;19998;-88
2022/04/22 07:35:47;;;;;;;17.75;15.73;;;;;;;-144.47;100.00;61586.06;6126362;23;20010;-86
2022/04/22 07:38:12;;;;;;;19.40;16.45;;;;;;;-144.47;100.00;61586.06;6128996;23;20430;-87
2022/04/22 07:40:40;;;;;;;20.42;16.90;;;;;;;-144.47;100.00;61586.06;6127053;23;20062;-87
2022/04/22 07:49:02;;;;;;;17.92;15.95;;;;;;;-144.47;100.00;61586.06;6124863;23;20010;-86
2022/04/22 07:51:27;;;;;;;19.80;17.40;;;;;;;-144.47;100.00;61586.06;6147155;23;20064;-89
2022/04/22 07:53:55;;;;;;;19.73;17.58;;;;;;;-144.47;100.00;61586.06;6123246;23;20001;-88
2022/04/22 07:56:21;;;;;;;20.67;18.27;;;;;;;-144.47;100.00;61586.06;6125138;23;20069;-88
2022/04/22 07:58:46;;;;;;;18.98;17.00;;;;;;;-144.47;100.00;61586.06;6126528;23;20010;-89
2022/04/22 08:01:13;;;;;;;22.05;16.95;;;;;;;-144.47;100.00;61586.06;6123818;23;20005;-89
2022/04/22 08:03:40;;;;;;;18.70;16.77;;;;;;;-144.47;100.00;61586.06;6125075;23;20376;-87
2022/04/22 08:06:06;;;;;;;18.67;16.70;;;;;;;-144.47;100.00;61586.06;6133201;23;20218;-88
2022/04/22 08:08:32;;;;;;;19.75;17.05;;;;;;;-144.47;100.00;61586.06;6137750;23;20009;-88
2022/04/22 08:10:57;;;;;;;20.88;17.30;;;;;;;-144.47;100.00;61586.06;6151307;23;20020;-88
2022/04/22 08:13:26;;;;;;;19.13;15.75;;;;;;;-144.47;100.00;61586.06;6146504;23;20036;-88
2022/04/22 08:15:53;;;;;;;19.45;17.45;;;;;;;-144.47;100.00;61586.06;6151055;23;20026;-88
2022/04/22 08:18:19;;;;;;;18.85;16.85;;;;;;;-144.47;100.00;61586.06;6138249;23;20105;-85
2022/04/22 08:20:44;;;;;;;20.20;17.70;;;;;;;-144.47;100.00;61586.06;6123672;23;20009;-87
2022/04/22 08:23:11;;;;;;;21.63;16.52;;;;;;;-144.47;100.00;61586.06;6126711;23;20002;-86
2022/04/22 08:25:37;;;;;;;19.05;17.05;;;;;;;-144.47;100.00;61586.06;6125242;23;20435;-88
2022/04/22 08:28:04;;;;;;;20.75;17.35;;;;;;;-144.47;100.00;61586.06;6123288;23;20013;-84
2022/04/22 08:30:30;;;;;;;19.25;17.35;;;;;;;-144.47;100.00;61586.06;6120654;23;20018;-83
2022/04/22 08:32:56;;;;;;;20.60;18.27;;;;;;;-144.47;100.00;61586.06;6119142;23;20018;-83
2022/04/22 08:35:22;;;;;;;19.45;17.33;;;;;;;-144.47;100.00;61586.06;6121411;23;20164;-84
2022/04/22 08:37:49;;;;;;;19.48;17.38;;;;;;;-144.47;100.00;61586.06;6123836;23;20387;-86
2022/04/22 08:40:15;;;;;;;19.77;17.35;;;;;;;-144.47;100.00;61586.06;6123875;23;20085;-85
2022/04/22 08:42:42;;;;;;;18.90;16.73;;;;;;;-144.47;100.00;61586.06;6128718;23;20381;-84
2022/04/22 08:45:10;;;;;;;19.90;16.90;;;;;;;-144.47;100.00;61586.06;6123421;23;20020;-81
2022/04/22 08:50:29;;;;;;;21.33;17.15;;;;;;;-144.47;100.00;61586.06;6121940;23;20335;-83
2022/04/22 08:52:57;;;;;;;19.38;17.08;;;;;;;-144.47;100.00;61586.06;6123003;23;20308;-81
2022/04/22 08:55:24;;;;;;;19.45;17.25;;;;;;;-144.47;100.00;61586.06;6121088;23;20037;-84
2022/04/22 08:57:51;;;;;;;17.83;16.02;;;;;;;-144.47;100.00;61586.06;6122549;23;20021;-84
2022/04/22 09:00:19;;;;;;;18.55;16.40;;;;;;;-144.47;100.00;61586.06;6123090;23;20088;-84
2022/04/22 09:02:44;;;;;;;19.90;17.77;;;;;;;-144.47;100.00;61586.06;6123036;23;20096;-84
2022/04/22 09:05:10;;;;;;;18.38;16.45;;;;;;;-144.47;100.00;61586.06;6122721;23;20044;-83
2022/04/22 09:07:37;;;;;;;17.85;16.08;;;;;;;-144.47;100.00;61586.06;6122287;23;20084;-80
2022/04/22 09:10:03;;;;;;;18.17;16.20;;;;;;;-144.47;100.00;61586.06;6122455;23;20145;-81
2022/04/22 09:12:29;;;;;;;19.55;16.98;;;;;;;-144.47;100.00;61586.06;6126088;23;20006;-84
2022/04/22 09:14:58;;;;;;;18.50;16.60;;;;;;;-144.47;100.00;61586.06;6127645;23;20061;-82
2022/04/22 09:17:30;;;;;;;18.10;16.20;;;;;;;-144.47;100.00;61586.06;6136881;23;20093;-85
2022/04/22 09:19:59;;;;;;;17.48;15.55;;;;;;;-144.47;100.00;61586.06;6129784;23;20018;-82
2022/04/22 09:22:26;;;;;;;19.02;15.82;;;;;;;-144.47;100.00;61586.06;6124468;23;20491;-82
2022/04/22 09:24:57;;;;;;;18.02;15.45;;;;;;;-144.47;100.00;61586.06;6123760;23;20432;-82
2022/04/22 09:27:36;;;;;;;17.48;15.10;;;;;;;-144.47;100.00;61586.06;6123437;23;20014;-83
2022/04/22 09:30:10;;;;;;;18.08;16.08;;;;;;;-144.47;100.00;61586.06;6124155;23;20036;-83
2022/04/22 09:33:01;;;;;;;17.10;15.35;;;;;;;-144.47;100.00;61586.06;6122915;23;20508;-81
2022/04/22 09:35:29;;;;;;;16.73;15.02;;;;;;;-144.47;100.00;61586.06;6126248;23;20042;-81
2022/04/22 09:43:51;;;;;;;15.95;14.25;;;;;;;-144.47;100.00;61586.06;6114518;23;20076;-81
2022/04/22 09:46:34;;;;;;;15.23;13.73;;;;;;;-144.47;100.00;61586.06;6113007;23;20995;-77
2022/04/22 09:49:00;;;;;;;15.25;13.70;;;;;;;-144.47;100.00;61586.06;6111214;23;20033;-80
2022/04/22 09:52:02;;;;;;;;;;;;;;;-144.47;100.00;61586.06;6112625;23;20383;-79
2022/04/22 09:54:28;;;;;;;15.45;13.88;;;;;;;-144.47;100.00;61586.06;6108227;23;19991;-81
2022/04/22 09:56:58;;;;;;;16.48;14.57;;;;;;;-144.47;100.00;61586.06;6111555;23;20018;-83
2022/04/22 09:59:28;;;;;;;16.08;14.40;;;;;;;-144.47;100.00;61586.06;6111321;23;20014;-81
2022/04/22 10:01:54;;;;;;;16.40;14.65;;;;;;;-144.47;100.00;61586.06;6114947;23;20021;-82
2022/04/22 10:04:22;;;;;;;15.02;13.63;;;;;;;-144.47;100.00;61586.06;6134024;23;20433;-81
2022/04/22 10:06:49;;;;;;;17.15;14.95;;;;;;;-144.47;100.00;61586.06;6112190;23;20408;-83
2022/04/22 10:09:15;;;;;;;15.65;14.02;;;;;;;-144.47;100.00;61586.06;6112041;23;20017;-78
2022/04/22 10:11:42;;;;;;;15.20;13.60;;;;;;;-144.47;100.00;61586.06;6111711;23;20021;-79
2022/04/22 10:14:09;;;;;;;15.30;13.75;;;;;;;-144.47;100.00;61586.06;6110962;23;20018;-78
2022/04/22 10:16:35;;;;;;;15.40;13.77;;;;;;;-144.47;100.00;61586.06;6111068;23;20028;-80
2022/04/22 10:19:01;;;;;;;15.35;13.02;;;;;;;-144.47;100.00;61586.06;6112149;23;20384;-81
2022/04/22 10:21:28;;;;;;;13.65;12.35;;;;;;;-144.47;100.00;61586.06;6118672;23;20029;-82
2022/04/22 10:23:56;;;;;;;14.68;13.27;;;;;;;-144.47;100.00;61586.06;6140431;23;20028;-81
2022/04/22 10:26:22;;;;;;;15.45;13.25;;;;;;;-144.47;100.00;61586.06;6146793;23;20014;-83
2022/04/22 10:28:48;;;;;;;13.57;11.93;;;;;;;-144.47;100.00;61586.06;6127534;23;20365;-80
2022/04/22 10:31:14;;;;;;;13.00;11.80;;;;;;;-144.47;100.00;61586.06;6125642;23;20096;-83
2022/04/22 10:33:46;;;;;;;13.68;12.30;;;;;;;-144.47;100.00;61586.06;6124144;23;20053;-82
2022/04/22 10:36:18;;;;;;;12.98;11.63;;;;;;;-144.47;100.00;61586.06;6123842;23;20014;-83
2022/04/22 10:38:48;;;;;;;12.98;11.73;;;;;;;-144.47;100.00;61586.06;6121653;23;20022;-84
2022/04/22 10:41:19;;;;;;;11.98;10.77;;;;;;;-144.47;100.00;61586.06;6123936;23;20050;-82
2022/04/22 10:49:18;;;;;;;12.85;11.63;;;;;;;-144.47;100.00;61586.06;6135886;23;20010;-83
2022/04/22 10:52:09;;;;;;;11.27;10.25;;;;;;;-144.47;100.00;61586.06;6123160;23;20039;-82
2022/04/22 10:54:51;;;;;;;11.27;10.20;;;;;;;-144.47;100.00;61586.06;6123707;23;20369;-83
2022/04/22 10:57:23;;;;;;;10.75;9.73;;;;;;;-144.47;100.00;61586.06;6123710;23;20018;-83
2022/04/22 11:00:05;;;;;;;11.73;10.60;;;;;;;-144.47;100.00;61586.06;6121971;23;20110;-83
2022/04/22 11:02:35;;;;;;;10.93;9.85;;;;;;;-144.47;100.00;61586.06;6123730;23;20010;-83
2022/04/22 11:05:18;;;;;;;11.52;10.15;;;;;;;-144.47;100.00;61586.06;6123804;23;20010;-83
2022/04/22 11:08:04;;;;;;;10.75;9.63;;;;;;;-144.47;100.00;61586.06;6123983;23;20342;-82
2022/04/22 11:10:48;;;;;;;11.07;9.98;;;;;;;-144.47;100.00;61586.06;6123935;23;20092;-82
2022/04/22 11:13:50;;;;;;;9.23;8.43;;;;;;;-144.47;100.00;61586.06;6123518;23;20081;-84
2022/04/22 11:16:29;;;;;;;8.32;7.53;;;;;;;-144.47;100.00;61586.06;6091601;23;20010;-83
2022/04/22 11:19:19;;;;;;;8.88;8.15;;;;;;;-144.47;100.00;61586.06;6124242;23;20036;-84
2022/04/22 11:21:52;;;;;;;8.40;7.60;;;;;;;-144.47;100.00;61586.06;6124614;23;20014;-83
2022/04/22 11:24:43;;;;;;;8.75;7.95;;;;;;;-144.47;100.00;61586.06;6125756;23;20089;-83
2022/04/22 11:27:12;;;;;;;7.40;5.63;;;;;;;-144.47;100.00;61586.06;6125927;23;20014;-84
2022/04/22 11:29:43;;;;;;;6.45;5.95;;;;;;;-144.47;100.00;61586.06;6122362;23;20002;-84
2022/04/22 11:32:22;;;;;;;8.88;7.82;;;;;;;-144.47;100.00;61586.06;6124328;23;20097;-83
2022/04/22 11:35:19;;;;;;;10.48;9.65;;;;;;;-144.47;100.00;61586.06;6124511;23;20044;-84
2022/04/22 11:37:55;;;;;;;10.98;9.80;;;;;;;-144.47;100.00;61586.06;6122223;23;20089;-82
2022/04/22 11:40:20;;;;;;;11.13;10.13;;;;;;;-144.47;100.00;61586.06;6123091;23;20010;-85
2022/04/22 11:42:49;;;;;;;11.70;10.27;;;;;;;-144.47;100.00;61586.06;6125027;23;20029;-86
2022/04/22 11:45:16;;;;;;;10.60;9.57;;;;;;;-144.47;100.00;61586.06;6123516;23;20324;-84
2022/04/22 11:47:43;;;;;;;10.02;9.13;;;;;;;-144.47;100.00;61586.06;6124787;23;20018;-84
2022/04/22 11:50:44;;;;;;;9.40;8.32;;;;;;;-144.47;100.00;61586.06;6124297;23;20077;-85
2022/04/22 11:53:32;;;;;;;9.07;8.27;;;;;;;-144.47;100.00;61586.06;6124936;23;20014;-84
2022/04/22 11:56:00;;;;;;;9.13;8.10;;;;;;;-144.47;100.00;61586.06;6129109;23;20014;-84
2022/04/22 11:58:27;;;;;;;7.72;7.13;;;;;;;-144.47;100.00;61586.06;6146132;23;20002;-83
2022/04/22 12:06:25;;;;;;;3.72;3.42;;;;;;;-144.47;100.00;61586.06;6139227;23;20013;-84